createdAt,value
2022-12-14T00:00:20.244Z,67.72
2022-12-14T00:03:07.841Z,67.75
2022-12-14T00:05:54.843Z,67.71
2022-12-14T00:08:53.039Z,67.43
2022-12-14T00:11:42.981Z,67.89
2022-12-14T00:14:30.053Z,67.98
2022-12-14T00:17:16.940Z,68.73
2022-12-14T00:20:04.280Z,68.52
2022-12-14T00:22:55.279Z,67.49
2022-12-14T00:25:42.309Z,67.67
2022-12-14T00:28:31.863Z,68.70
2022-12-14T00:31:19.444Z,67.63
2022-12-14T00:34:06.531Z,68.46
2022-12-14T00:36:56.159Z,67.95
2022-12-14T00:39:42.916Z,67.96
2022-12-14T00:42:31.911Z,67.91
2022-12-14T00:45:19.730Z,67.54
2022-12-14T00:48:06.723Z,68.65
2022-12-14T00:50:55.113Z,68.22
2022-12-14T00:53:43.735Z,68.48
2022-12-14T00:56:30.574Z,67.97
2022-12-14T00:59:26.963Z,68.80
2022-12-14T01:02:14.508Z,68.26
2022-12-14T01:05:01.555Z,68.63
2022-12-14T01:08:01.087Z,68.52
2022-12-14T01:10:48.034Z,68.76
2022-12-14T01:13:35.174Z,67.81
2022-12-14T01:16:22.052Z,68.25
2022-12-14T01:19:08.931Z,67.97
2022-12-14T01:21:55.748Z,68.16
2022-12-14T01:24:44.483Z,67.77
2022-12-14T01:27:34.521Z,68.30
2022-12-14T01:30:23.936Z,68.85
2022-12-14T01:33:13.786Z,68.63
2022-12-14T01:36:08.093Z,67.74
2022-12-14T01:38:57.022Z,68.97
2022-12-14T01:41:47.274Z,69.01
2022-12-14T01:44:36.811Z,68.82
2022-12-14T01:47:43.919Z,67.91
2022-12-14T01:50:45.264Z,68.25
2022-12-14T01:53:32.230Z,68.65
2022-12-14T01:56:20.544Z,68.77
2022-12-14T01:59:14.971Z,68.44
2022-12-14T02:02:07.740Z,68.67
2022-12-14T02:04:58.028Z,68.94
2022-12-14T02:07:58.898Z,68.56
2022-12-14T02:10:46.432Z,68.15
2022-12-14T02:13:35.523Z,68.91
2022-12-14T02:16:22.500Z,68.26
2022-12-14T02:19:09.782Z,68.52
2022-12-14T02:22:24.787Z,67.89
2022-12-14T02:25:22.271Z,68.24
2022-12-14T02:28:27.872Z,68.99
2022-12-14T02:31:24.984Z,68.19
2022-12-14T02:34:30.881Z,67.93
2022-12-14T02:37:24.326Z,68.70
2022-12-14T02:40:19.591Z,68.72
2022-12-14T02:43:24.463Z,67.97
2022-12-14T02:46:33.299Z,67.99
2022-12-14T02:49:20.123Z,69.32
2022-12-14T02:52:08.583Z,68.04
2022-12-14T02:54:59.628Z,68.65
2022-12-14T02:58:00.882Z,68.71
2022-12-14T03:00:50.495Z,69.09
2022-12-14T03:03:40.405Z,68.58
2022-12-14T03:06:27.476Z,69.04
2022-12-14T03:09:17.391Z,68.70
2022-12-14T03:12:10.890Z,68.68
2022-12-14T03:15:01.295Z,68.73
2022-12-14T03:17:52.000Z,68.01
2022-12-14T03:20:42.551Z,69.03
2022-12-14T03:23:35.219Z,68.00
2022-12-14T03:26:26.344Z,68.68
2022-12-14T03:29:23.456Z,68.12
2022-12-14T03:32:12.638Z,68.37
2022-12-14T03:35:17.007Z,68.68
2022-12-14T03:38:06.938Z,69.24
2022-12-14T03:41:17.116Z,69.00
2022-12-14T03:44:50.013Z,69.21
2022-12-14T03:47:58.732Z,68.21
2022-12-14T03:51:07.606Z,69.13
2022-12-14T03:54:12.858Z,68.92
2022-12-14T03:57:05.767Z,68.52
2022-12-14T04:00:06.943Z,68.90
2022-12-14T04:03:01.493Z,68.47
2022-12-14T04:06:20.719Z,68.66
2022-12-14T04:09:09.883Z,69.21
2022-12-14T04:12:21.754Z,69.46
2022-12-14T04:15:33.161Z,68.56
2022-12-14T04:18:45.206Z,68.46
2022-12-14T04:21:39.193Z,68.68
2022-12-14T04:25:17.908Z,69.06
2022-12-14T04:28:32.280Z,69.51
2022-12-14T04:31:30.920Z,68.87
2022-12-14T04:34:21.350Z,69.08
2022-12-14T04:37:11.014Z,69.62
2022-12-14T04:40:21.162Z,68.98
2022-12-14T04:43:18.571Z,68.51
2022-12-14T04:46:08.838Z,68.55
2022-12-14T04:49:01.383Z,68.73
2022-12-14T04:52:27.677Z,69.10
2022-12-14T04:55:29.642Z,69.37
2022-12-14T04:58:21.866Z,69.10
2022-12-14T05:01:35.655Z,68.88
2022-12-14T05:04:25.629Z,69.00
2022-12-14T05:07:21.060Z,68.47
2022-12-14T05:10:20.439Z,68.56
2022-12-14T05:13:15.366Z,69.28
2022-12-14T05:16:02.669Z,69.14
2022-12-14T05:18:49.999Z,69.17
2022-12-14T05:21:48.972Z,68.70
2022-12-14T05:24:39.112Z,68.74
2022-12-14T05:27:28.830Z,69.16
2022-12-14T05:30:21.005Z,68.73
2022-12-14T05:33:16.522Z,69.33
2022-12-14T05:36:03.457Z,68.70
2022-12-14T05:38:51.693Z,69.12
2022-12-14T05:41:41.691Z,69.04
2022-12-14T05:44:28.518Z,68.89
2022-12-14T05:47:15.569Z,69.28
2022-12-14T05:50:02.536Z,69.24
2022-12-14T05:52:51.864Z,68.76
2022-12-14T05:55:38.894Z,68.77
2022-12-14T05:58:29.149Z,68.71
2022-12-14T06:01:19.350Z,68.39
2022-12-14T06:04:06.800Z,68.83
2022-12-14T06:06:53.632Z,69.14
2022-12-14T06:09:40.438Z,69.05
2022-12-14T06:12:27.276Z,69.14
2022-12-14T06:15:14.163Z,69.77
2022-12-14T06:18:01.019Z,68.95
2022-12-14T06:20:47.990Z,68.84
2022-12-14T06:23:40.517Z,69.08
2022-12-14T06:26:28.533Z,69.22
2022-12-14T06:29:20.607Z,69.21
2022-12-14T06:32:07.463Z,68.76
2022-12-14T06:35:00.202Z,69.07
2022-12-14T06:37:48.890Z,68.93
2022-12-14T06:40:35.856Z,69.27
2022-12-14T06:43:25.704Z,68.60
2022-12-14T06:46:16.092Z,69.13
2022-12-14T06:49:04.892Z,68.30
2022-12-14T06:51:51.670Z,68.98
2022-12-14T06:54:38.443Z,69.23
2022-12-14T06:57:28.209Z,68.68
2022-12-14T07:00:15.127Z,68.34
2022-12-14T07:03:02.038Z,69.28
2022-12-14T07:05:51.467Z,69.28
2022-12-14T07:08:38.626Z,68.47
2022-12-14T07:11:27.048Z,69.08
2022-12-14T07:14:17.309Z,68.68
2022-12-14T07:17:04.090Z,69.48
2022-12-14T07:19:53.244Z,69.19
2022-12-14T07:22:40.969Z,69.19
2022-12-14T07:25:27.861Z,69.45
2022-12-14T07:28:15.219Z,69.43
2022-12-14T07:31:02.998Z,69.73
2022-12-14T07:33:52.847Z,68.58
2022-12-14T07:36:40.045Z,68.65
2022-12-14T07:39:27.036Z,69.51
2022-12-14T07:42:13.977Z,69.58
2022-12-14T07:45:01.281Z,69.31
2022-12-14T07:47:48.362Z,69.60
2022-12-14T07:50:39.828Z,69.71
2022-12-14T07:53:27.111Z,69.82
2022-12-14T07:56:22.890Z,69.08
2022-12-14T07:59:19.388Z,68.95
2022-12-14T08:02:06.384Z,69.64
2022-12-14T08:04:56.666Z,68.98
2022-12-14T08:07:43.948Z,69.36
2022-12-14T08:10:34.392Z,69.68
2022-12-14T08:13:24.155Z,69.60
2022-12-14T08:16:15.107Z,68.79
2022-12-14T08:19:04.470Z,68.96
2022-12-14T08:21:51.943Z,69.70
2022-12-14T08:24:41.611Z,69.04
2022-12-14T08:27:31.351Z,69.14
2022-12-14T08:30:18.486Z,69.65
2022-12-14T08:33:05.762Z,69.00
2022-12-14T08:35:52.709Z,69.47
2022-12-14T08:38:43.025Z,69.34
2022-12-14T08:41:30.482Z,69.80
2022-12-14T08:44:18.314Z,69.81
2022-12-14T08:47:06.089Z,69.29
2022-12-14T08:49:54.515Z,70.43
2022-12-14T08:52:41.561Z,70.01
2022-12-14T08:55:35.195Z,69.33
2022-12-14T08:58:26.356Z,69.75
2022-12-14T09:01:28.338Z,70.38
2022-12-14T09:04:19.073Z,69.80
2022-12-14T09:07:09.199Z,70.73
2022-12-14T09:09:56.750Z,70.76
2022-12-14T09:12:43.829Z,70.30
2022-12-14T09:15:30.980Z,70.54
2022-12-14T09:18:17.917Z,70.29
2022-12-14T09:21:06.306Z,70.84
2022-12-14T09:23:58.947Z,70.42
2022-12-14T09:26:47.360Z,69.79
2022-12-14T09:29:34.650Z,69.64
2022-12-14T09:32:24.802Z,70.67
2022-12-14T09:35:12.086Z,70.36
2022-12-14T09:38:01.764Z,70.65
2022-12-14T09:40:56.242Z,69.82
2022-12-14T09:43:51.148Z,69.77
2022-12-14T09:46:45.441Z,69.57
2022-12-14T09:49:45.885Z,70.55
2022-12-14T09:52:42.509Z,69.93
2022-12-14T09:55:32.816Z,69.99
2022-12-14T09:58:26.893Z,70.28
2022-12-14T10:01:23.356Z,70.84
2022-12-14T10:04:39.549Z,70.48
2022-12-14T10:07:34.174Z,70.12
2022-12-14T10:10:31.914Z,70.65
2022-12-14T10:13:46.981Z,70.69
2022-12-14T10:16:51.990Z,70.36
2022-12-14T10:19:59.587Z,69.78
2022-12-14T10:30:53.686Z,70.87
2022-12-14T10:45:42.169Z,70.90
2022-12-14T10:49:28.559Z,71.27
2022-12-14T10:53:08.617Z,71.26
2022-12-14T10:56:29.781Z,70.77
2022-12-14T11:00:34.195Z,70.36
2022-12-14T11:15:25.124Z,70.68
2022-12-14T11:22:33.024Z,71.35
2022-12-14T11:32:57.598Z,71.08
2022-12-14T11:36:47.000Z,71.55
2022-12-14T11:39:40.273Z,70.56
2022-12-14T11:46:52.120Z,71.26
2022-12-14T11:49:53.480Z,71.23
2022-12-14T11:53:00.605Z,71.47
2022-12-14T11:56:17.116Z,71.38
2022-12-14T12:00:15.814Z,71.68
2022-12-14T12:03:48.587Z,71.75
2022-12-14T12:06:49.865Z,72.31
2022-12-14T12:09:53.484Z,74.26
2022-12-14T12:13:10.289Z,75.65
2022-12-14T12:19:37.026Z,76.37
2022-12-14T12:22:28.492Z,76.53
2022-12-14T12:25:29.587Z,76.52
2022-12-14T12:28:27.652Z,76.47
2022-12-14T12:31:39.567Z,76.71
2022-12-14T12:34:40.289Z,77.43
2022-12-14T12:37:53.679Z,76.75
2022-12-14T12:40:59.091Z,76.83
2022-12-14T12:44:17.404Z,76.71
2022-12-14T12:47:48.336Z,76.86
2022-12-14T12:50:57.132Z,76.67
2022-12-14T12:57:24.102Z,76.52
2022-12-14T13:00:27.869Z,76.36
2022-12-14T13:03:46.393Z,76.02
2022-12-14T13:07:01.063Z,76.32
2022-12-14T13:13:48.208Z,75.57
2022-12-14T13:17:04.954Z,76.21
2022-12-14T13:20:04.291Z,75.90
2022-12-14T13:26:59.386Z,75.68
2022-12-14T13:30:34.062Z,75.93
2022-12-14T13:34:42.186Z,75.38
2022-12-14T13:38:27.656Z,75.86
2022-12-14T13:41:32.259Z,75.54
2022-12-14T13:45:01.572Z,75.31
2022-12-14T13:47:57.391Z,75.45
2022-12-14T13:51:02.221Z,75.52
2022-12-14T13:54:09.709Z,75.25
2022-12-14T13:57:33.162Z,75.46
2022-12-14T14:00:55.029Z,75.43
2022-12-14T14:04:02.304Z,75.11
2022-12-14T14:07:01.725Z,74.70
2022-12-14T14:10:01.570Z,74.93
2022-12-14T14:16:28.731Z,74.88
2022-12-14T14:19:43.063Z,74.67
2022-12-14T14:22:42.940Z,74.66
2022-12-14T14:26:20.520Z,74.53
2022-12-14T14:29:29.517Z,74.44
2022-12-14T14:33:43.855Z,74.49
2022-12-14T14:36:25.475Z,74.37
2022-12-14T14:40:02.339Z,74.51
2022-12-14T14:46:56.958Z,74.35
2022-12-14T14:50:05.043Z,74.23
2022-12-14T14:53:23.083Z,74.08
2022-12-14T14:56:42.982Z,73.87
2022-12-14T14:59:50.816Z,74.11
2022-12-14T15:02:51.769Z,74.16
2022-12-14T15:05:52.651Z,73.98
2022-12-14T15:08:47.489Z,74.35
2022-12-14T15:12:20.739Z,74.33
2022-12-14T15:15:52.113Z,74.01
2022-12-14T15:18:52.337Z,73.95
2022-12-14T15:22:02.249Z,74.03
2022-12-14T15:25:33.266Z,73.60
2022-12-14T15:32:16.630Z,73.93
2022-12-14T15:35:20.210Z,73.72
2022-12-14T15:38:26.766Z,73.42
2022-12-14T15:41:44.424Z,73.40
2022-12-14T15:44:49.017Z,73.68
2022-12-14T15:48:09.182Z,74.02
2022-12-14T15:51:12.030Z,73.85
2022-12-14T15:53:59.810Z,74.21
2022-12-14T15:57:02.725Z,74.09
2022-12-14T15:59:52.176Z,73.96
2022-12-14T16:02:47.278Z,73.48
2022-12-14T16:05:36.028Z,73.35
2022-12-14T16:08:23.366Z,73.70
2022-12-14T16:11:30.463Z,73.55
2022-12-14T16:14:25.680Z,73.52
2022-12-14T16:17:14.285Z,73.62
2022-12-14T16:20:17.990Z,73.79
2022-12-14T16:23:14.272Z,73.69
2022-12-14T16:26:21.996Z,73.88
2022-12-14T16:29:26.539Z,73.56
2022-12-14T16:32:24.452Z,73.68
2022-12-14T16:35:25.274Z,73.58
2022-12-14T16:38:16.105Z,74.00
2022-12-14T16:41:06.283Z,73.56
2022-12-14T16:43:58.396Z,73.41
2022-12-14T16:47:02.769Z,73.24
2022-12-14T16:49:50.142Z,73.57
2022-12-14T16:52:37.186Z,73.24
2022-12-14T16:55:26.391Z,73.59
2022-12-14T16:58:16.363Z,73.46
2022-12-14T17:01:06.880Z,73.66
2022-12-14T17:04:04.179Z,73.72
2022-12-14T17:06:55.708Z,73.52
2022-12-14T17:09:42.618Z,73.54
2022-12-14T17:12:29.600Z,73.11
2022-12-14T17:15:20.368Z,73.68
2022-12-14T17:18:08.486Z,73.67
2022-12-14T17:21:16.916Z,73.42
2022-12-14T17:45:23.541Z,73.47
2022-12-14T17:48:37.496Z,73.42
2022-12-14T17:51:42.095Z,73.74
2022-12-14T17:54:54.663Z,73.43
2022-12-14T17:58:28.208Z,73.38
2022-12-14T18:10:09.992Z,73.58
2022-12-14T18:13:04.528Z,73.57
2022-12-14T18:16:28.097Z,73.67
2022-12-14T18:19:16.386Z,73.54
2022-12-14T18:22:13.085Z,73.66
2022-12-14T18:25:06.593Z,74.20
2022-12-14T18:27:53.533Z,74.90
2022-12-14T18:30:49.197Z,75.21
2022-12-14T18:33:36.990Z,75.07
2022-12-14T18:36:34.004Z,74.62
2022-12-14T18:39:23.344Z,74.61
2022-12-14T18:42:10.877Z,74.63
2022-12-14T18:45:00.587Z,73.98
2022-12-14T18:47:56.149Z,73.90
2022-12-14T18:50:43.654Z,73.99
2022-12-14T18:53:37.146Z,73.97
2022-12-14T18:56:25.381Z,73.72
2022-12-14T18:59:15.364Z,73.83
2022-12-14T19:02:25.344Z,73.86
2022-12-14T19:05:17.337Z,74.33
2022-12-14T19:08:08.837Z,73.98
2022-12-14T19:11:01.961Z,73.69
2022-12-14T19:14:03.290Z,73.61
2022-12-14T19:16:52.824Z,74.14
2022-12-14T19:19:44.403Z,73.95
2022-12-14T19:23:00.681Z,73.55
2022-12-14T19:26:05.779Z,73.79
2022-12-14T19:32:24.892Z,73.79
2022-12-14T19:35:15.143Z,73.59
2022-12-14T19:41:59.933Z,73.50
2022-12-14T19:47:55.437Z,73.55
2022-12-14T19:51:18.732Z,73.77
2022-12-14T19:54:40.967Z,73.62
2022-12-14T19:57:32.450Z,73.67
2022-12-14T20:00:27.512Z,73.76
2022-12-14T20:03:25.023Z,73.52
2022-12-14T20:10:28.446Z,73.71
2022-12-14T20:16:29.124Z,73.70
2022-12-14T20:16:31.196Z,74.07
2022-12-14T20:19:44.199Z,73.71
2022-12-14T20:22:57.881Z,73.65
2022-12-14T20:26:04.014Z,73.75
2022-12-14T20:29:06.374Z,73.91
2022-12-14T20:32:11.613Z,73.58
2022-12-14T20:35:20.959Z,73.74
2022-12-14T20:38:10.867Z,73.51
2022-12-14T20:41:12.593Z,73.63
2022-12-14T20:44:08.051Z,73.67
2022-12-14T20:46:55.381Z,74.12
2022-12-14T20:49:53.420Z,74.20
2022-12-14T20:52:45.876Z,73.97
2022-12-14T20:55:45.115Z,73.42
2022-12-14T20:58:42.295Z,73.77
2022-12-14T21:01:32.224Z,73.79
2022-12-14T21:04:19.249Z,73.67
2022-12-14T21:07:22.905Z,74.12
2022-12-14T21:10:15.586Z,73.71
2022-12-14T21:13:08.548Z,73.91
2022-12-14T21:16:05.223Z,73.91
2022-12-14T21:18:56.593Z,73.64
2022-12-14T21:21:53.496Z,73.60
2022-12-14T21:25:02.222Z,74.08
2022-12-14T21:27:57.115Z,73.66
2022-12-14T21:30:47.339Z,73.61
2022-12-14T21:34:14.903Z,73.83
2022-12-14T21:37:38.943Z,73.76
2022-12-14T21:40:45.708Z,73.44
2022-12-14T21:43:38.691Z,73.63
2022-12-14T21:46:34.259Z,73.78
2022-12-14T21:49:41.787Z,73.83
2022-12-14T21:52:32.719Z,73.50
2022-12-14T21:55:21.954Z,73.80
2022-12-14T21:58:20.995Z,73.99
2022-12-14T22:01:19.894Z,73.69
2022-12-14T22:04:09.996Z,73.93
2022-12-14T22:06:58.124Z,73.47
2022-12-14T22:09:51.039Z,73.76
2022-12-14T22:12:43.862Z,73.49
2022-12-14T22:15:42.944Z,74.00
2022-12-14T22:18:42.738Z,73.80
2022-12-14T22:21:29.767Z,73.69
2022-12-14T22:24:17.443Z,74.09
2022-12-14T22:27:17.551Z,74.11
2022-12-14T22:30:05.498Z,73.77
2022-12-14T22:32:58.951Z,73.73
2022-12-14T22:35:47.211Z,73.82
2022-12-14T22:38:34.238Z,73.60
2022-12-14T22:41:21.132Z,73.86
2022-12-14T22:44:08.438Z,73.89
2022-12-14T22:47:09.543Z,73.41
2022-12-14T22:49:56.557Z,73.59
2022-12-14T22:52:43.550Z,74.04
2022-12-14T22:55:37.814Z,73.68
2022-12-14T22:58:26.688Z,73.64
2022-12-14T23:01:16.014Z,73.72
2022-12-14T23:04:03.252Z,73.87
2022-12-14T23:06:53.138Z,73.91
2022-12-14T23:10:08.799Z,73.78
2022-12-14T23:13:14.282Z,73.46
2022-12-14T23:16:20.012Z,73.80
2022-12-14T23:19:29.951Z,73.55
2022-12-14T23:22:40.506Z,73.99
2022-12-14T23:25:45.919Z,73.57
2022-12-14T23:28:51.645Z,73.54
2022-12-14T23:31:58.462Z,74.00
2022-12-14T23:35:03.910Z,73.57
2022-12-14T23:38:15.024Z,73.77
2022-12-14T23:41:22.532Z,73.71
2022-12-14T23:44:28.155Z,73.77
2022-12-14T23:47:33.552Z,73.67
2022-12-14T23:50:39.582Z,73.74
2022-12-14T23:53:50.025Z,73.98
2022-12-14T23:56:56.071Z,73.79
